Shinshinmaru — JD3332 — position and weather

sailwx.info

Track history (hours):
 
Tides and Currents Weather Stations Pressure Air Temp Water Temp Dewpoint Dewpoint Depression Visibility Wind Speed Wind Dir Waves Ship Positions

Shinshinmaru

Last reported at 2018-Apr-23 14:42 UTC. Time now 2018-Apr-24 14:34 UTC.
Position N 34°18' E 133°00'.

Length 74 m; draft 4.8 m.

Type: Tanker. MMSI: 431003616.

Date/timePositionNaut miles runAvg speedWind from/ knotsBaromVisibWave heightAir tempDewpointWater temp
2018-Apr-23 14:42N 34°18' E 133°00'2011.1
2018-Apr-23 12:55N 34°04' E 132°44'511.7
2018-Apr-23 12:30N 34°01' E 132°38'711.0
2018-Apr-23 11:52N 33°57' E 132°32'411.1
2018-Apr-23 11:28N 33°54' E 132°28'511.2
2018-Apr-23 10:59N 33°51' E 132°23'811.6
2018-Apr-23 10:16N 33°49' E 132°13'711.3
2018-Apr-23 09:39N 33°46' E 132°06'212.0
2018-Apr-23 09:30N 33°45' E 132°04'811.6
2018-Apr-23 08:51N 33°46' E 131°54'411.7
2018-Apr-23 08:29N 33°47' E 131°49'612.1
2018-Apr-23 08:00N 33°48' E 131°43'612.0
2018-Apr-23 07:30N 33°49' E 131°36'611.9
2018-Apr-23 07:00N 33°50' E 131°29'612.0
2018-Apr-23 06:30N 33°51' E 131°22'611.8
2018-Apr-23 06:00N 33°52' E 131°15'611.6
2018-Apr-23 05:29N 33°55' E 131°08'611.8
2018-Apr-23 05:00N 33°58' E 131°02'5 9.9
2018-Apr-23 04:30N 33°56' E 130°56'3 6.9
2018-Apr-23 04:00N 33°56' E 130°52'2 4.1
2018-Apr-23 03:30N 33°58' E 130°52'0 0.0
2018-Apr-23 03:00N 33°58' E 130°52'0 0.0
2018-Apr-23 02:30N 33°58' E 130°52'0 0.0
2018-Apr-23 02:00N 33°58' E 130°52'0 0.0
2018-Apr-23 01:30N 33°58' E 130°52'0 0.0
2018-Apr-23 01:00N 33°58' E 130°52'0 0.0
2018-Apr-23 00:30N 33°58' E 130°52'0 0.0
2018-Apr-23 00:00N 33°58' E 130°52'1 3.0
2018-Apr-22 23:31N 33°58' E 130°54'0 0.2
2018-Apr-22 23:00N 33°58' E 130°54'0 0.0
2018-Apr-22 22:30N 33°58' E 130°54'0 0.0
2018-Apr-22 22:00N 33°58' E 130°54'0 0.0
2018-Apr-22 21:30N 33°58' E 130°54'0 0.0
2018-Apr-22 21:00N 33°58' E 130°54'0 0.0
2018-Apr-22 20:30N 33°58' E 130°54'0 0.1
2018-Apr-22 20:00N 33°58' E 130°54'0 0.0
2018-Apr-22 19:28N 33°58' E 130°54'0 0.0
2018-Apr-22 19:01N 33°58' E 130°54'0 0.0
2018-Apr-22 18:31N 33°58' E 130°54'0 0.0
2018-Apr-22 18:00N 33°58' E 130°54'0 0.0
2018-Apr-22 17:30N 33°58' E 130°54'0 0.1
2018-Apr-22 17:00N 33°58' E 130°54'0 0.0
2018-Apr-22 16:28N 33°58' E 130°54'0 0.0
2018-Apr-22 16:00N 33°58' E 130°54'0 0.0
2018-Apr-22 15:31N 33°58' E 130°54'0 0.0
2018-Apr-22 15:00N 33°58' E 130°54'0 0.0
2018-Apr-22 14:30N 33°58' E 130°54'0 0.0
2018-Apr-22 13:59N 33°58' E 130°54'0 0.1
2018-Apr-22 13:30N 33°58' E 130°54'0 0.0
2018-Apr-22 13:00N 33°58' E 130°54'0 0.1
2018-Apr-22 12:30N 33°58' E 130°54'0 0.0
2018-Apr-22 12:00N 33°58' E 130°54'0 0.0
2018-Apr-22 11:30N 33°58' E 130°54'0 0.0
2018-Apr-22 11:00N 33°58' E 130°54'0 0.0
2018-Apr-22 10:30N 33°58' E 130°54'0 0.1
2018-Apr-22 10:01N 33°58' E 130°54'0 0.1
2018-Apr-22 09:30N 33°58' E 130°54'0 0.0
2018-Apr-22 09:00N 33°58' E 130°54'0 0.0
2018-Apr-22 08:30N 33°58' E 130°54'0 0.0
2018-Apr-22 08:00N 33°58' E 130°54'0 0.0
2018-Apr-22 07:30N 33°58' E 130°54'0 0.0
2018-Apr-22 07:00N 33°58' E 130°54'0 0.0
2018-Apr-22 06:30N 33°58' E 130°54'0 0.0
2018-Apr-22 06:00N 33°58' E 130°54'0 0.0
2018-Apr-22 05:30N 33°58' E 130°54'0 0.1
2018-Apr-22 05:00N 33°58' E 130°54'0 0.0
2018-Apr-22 04:31N 33°58' E 130°54'0 0.0
2018-Apr-22 03:59N 33°58' E 130°54'0 0.0
2018-Apr-22 03:30N 33°58' E 130°54'0 0.0
2018-Apr-22 03:00N 33°58' E 130°54'2 3.7
2018-Apr-22 02:30N 33°56' E 130°53'1 1.4
2018-Apr-22 02:00N 33°56' E 130°54'0 0.0
2018-Apr-22 01:30N 33°56' E 130°54'0 0.0
2018-Apr-22 01:00N 33°56' E 130°54'0 0.0
2018-Apr-22 00:30N 33°56' E 130°54'0 0.0
2018-Apr-22 00:00N 33°56' E 130°54'0 0.0
2018-Apr-21 23:30N 33°56' E 130°54'0 0.0
2018-Apr-21 23:00N 33°56' E 130°54'0 0.0
2018-Apr-21 22:30N 33°56' E 130°54'0 0.1
2018-Apr-21 22:00N 33°56' E 130°54'1 2.9
2018-Apr-21 21:30N 33°55' E 130°54'510.3
2018-Apr-21 20:59N 33°58' E 130°59'510.1
2018-Apr-21 20:31N 33°57' E 131°04'611.8
2018-Apr-21 20:00N 33°54' E 131°10'611.3
2018-Apr-21 19:30N 33°53' E 131°17'2 4.9
2018-Apr-21 19:00N 33°53' E 131°20'3 6.3
2018-Apr-21 18:30N 33°51' E 131°23'611.6
2018-Apr-21 18:00N 33°50' E 131°30'611.7
2018-Apr-21 17:30N 33°49' E 131°37'611.8
2018-Apr-21 17:00N 33°48' E 131°44'612.0
2018-Apr-21 16:30N 33°47' E 131°51'811.7
2018-Apr-21 15:47N 33°46' E 132°01'311.6
2018-Apr-21 15:30N 33°46' E 132°05'611.4
2018-Apr-21 15:00N 33°49' E 132°11'1510.6
2018-Apr-21 13:38N 33°54' E 132°27'110.6
2018-Apr-21 13:30N 33°55' E 132°28'610.4
2018-Apr-21 12:55N 33°59' E 132°34'511.5
2018-Apr-21 12:30N 34°01' E 132°38'2412.2
2018-Apr-21 10:31N 34°18' E 132°60'49 2.4
2018-Apr-20 14:12N 34°26' E 133°58'413.2
2018-Apr-20 13:54N 34°27' E 134°03'613.7
2018-Apr-20 13:28N 34°26' E 134°10'713.7
2018-Apr-20 12:59N 34°23' E 134°18'612.5
2018-Apr-20 12:29N 34°21' E 134°25'612.3
2018-Apr-20 12:00N 34°18' E 134°31'712.5
2018-Apr-20 11:26N 34°15' E 134°39'612.9
2018-Apr-20 10:57N 34°10' E 134°43'512.2
2018-Apr-20 10:30N 34°06' E 134°48'612.5
2018-Apr-20 10:00N 34°02' E 134°53'612.0
2018-Apr-20 09:30N 33°57' E 134°57'612.3
2018-Apr-20 09:00N 33°52' E 135°02'19210.7
2018-Apr-19 15:02N 34°35' E 138°49'011.3
2018-Apr-19 15:00N 34°35' E 138°49'711.8
2018-Apr-19 14:27N 34°36' E 138°57'611.9
2018-Apr-19 13:59N 34°39' E 139°02'811.5
2018-Apr-19 13:17N 34°44' E 139°10'1311.5
2018-Apr-19 12:09N 34°53' E 139°22'310.4
2018-Apr-19 11:53N 34°55' E 139°25'4 9.8
2018-Apr-19 11:29N 34°57' E 139°28'511.1
2018-Apr-19 11:00N 35°01' E 139°33'611.4
2018-Apr-19 10:30N 35°04' E 139°38'612.0
2018-Apr-19 10:01N 35°09' E 139°43'611.5
2018-Apr-19 09:31N 35°14' E 139°46'510.8
2018-Apr-19 09:00N 35°19' E 139°43'611.2
2018-Apr-19 08:30N 35°24' E 139°42'5 9.9
2018-Apr-19 08:00N 35°29' E 139°43'0 0.3
2018-Apr-19 07:31N 35°29' E 139°43'0 0.0
2018-Apr-19 07:00N 35°29' E 139°43'0 0.0
2018-Apr-19 06:30N 35°29' E 139°43'0 0.0
2018-Apr-19 06:00N 35°29' E 139°43'0 0.0
2018-Apr-19 05:30N 35°29' E 139°43'0 0.0
2018-Apr-19 05:00N 35°29' E 139°43'4 8.3
2018-Apr-19 04:30N 35°30' E 139°48'2 4.5
2018-Apr-19 04:01N 35°31' E 139°51'0 0.1
2018-Apr-19 03:30N 35°31' E 139°50'0 0.1
2018-Apr-19 03:00N 35°31' E 139°50'1 1.5
2018-Apr-19 02:30N 35°31' E 139°51'611.9
2018-Apr-19 02:00N 35°33' E 139°58'611.2
2018-Apr-19 01:30N 35°36' E 140°04'2 3.7
2018-Apr-19 00:59N 35°35' E 140°07'0 0.0
2018-Apr-19 00:30N 35°35' E 140°07'0 0.0
2018-Apr-19 00:00N 35°35' E 140°07'0 0.0
2018-Apr-18 23:30N 35°35' E 140°07'0 0.0
2018-Apr-18 23:00N 35°35' E 140°07'3 6.3
2018-Apr-18 22:30N 35°35' E 140°03'3 6.5
2018-Apr-18 22:00N 35°33' E 139°60'3 6.4
2018-Apr-18 21:30N 35°31' E 139°56'4 7.0
2018-Apr-18 21:00N 35°29' E 139°53'611.4
2018-Apr-18 20:30N 35°25' E 139°48'612.0
2018-Apr-18 20:00N 35°20' E 139°44'611.8
2018-Apr-18 19:30N 35°14' E 139°47'612.2
2018-Apr-18 19:00N 35°08' E 139°46'612.6
2018-Apr-18 18:30N 35°02' E 139°44'612.3
2018-Apr-18 17:59N 34°56' E 139°45'1310.3
2018-Apr-18 16:46N 34°56' E 140°01'512.4
2018-Apr-18 16:24N 34°59' E 140°05'511.8
2018-Apr-18 15:59N 35°01' E 140°10'  
2018-Apr-16 08:56N 35°02' E 140°11'512.9
2018-Apr-16 08:30N 34°59' E 140°06'1512.1
2018-Apr-16 07:18N 34°53' E 139°49'311.7
2018-Apr-16 07:00N 34°55' E 139°46'5 9.9
2018-Apr-16 06:30N 34°59' E 139°43'611.4
2018-Apr-16 06:01N 35°05' E 139°45'612.2
2018-Apr-16 05:30N 35°11' E 139°46'611.4
2018-Apr-16 05:00N 35°16' E 139°46'611.3
2018-Apr-16 04:30N 35°21' E 139°42'510.8
2018-Apr-16 04:00N 35°26' E 139°45'612.4
2018-Apr-16 03:30N 35°30' E 139°52'612.4
2018-Apr-16 03:00N 35°32' E 139°58'2 4.5
2018-Apr-16 02:31N 35°33' E 140°01'0 0.0
2018-Apr-16 02:00N 35°33' E 140°01'0 0.0
2018-Apr-16 01:30N 35°33' E 140°01'0 0.0
2018-Apr-16 01:00N 35°33' E 140°01'0 0.0
2018-Apr-16 00:29N 35°33' E 140°01'0 0.0
2018-Apr-16 00:01N 35°33' E 140°01'0 0.0
2018-Apr-15 23:30N 35°33' E 140°01'0 0.0
2018-Apr-15 23:01N 35°33' E 140°01'0 0.0
2018-Apr-15 22:31N 35°33' E 140°01'0 0.0
2018-Apr-15 22:00N 35°33' E 140°01'0 0.0
2018-Apr-15 21:30N 35°33' E 140°01'0 0.1
2018-Apr-15 21:01N 35°33' E 140°01'0 0.0
2018-Apr-15 20:30N 35°33' E 140°01'0 0.0
2018-Apr-15 20:01N 35°33' E 140°01'0 0.0
2018-Apr-15 19:30N 35°33' E 140°01'0 0.0
2018-Apr-15 19:01N 35°33' E 140°01'0 0.0
2018-Apr-15 18:31N 35°33' E 140°01'0 0.0
2018-Apr-15 18:01N 35°33' E 140°01'0 0.0
2018-Apr-15 17:31N 35°33' E 140°01'0 0.0
2018-Apr-15 17:01N 35°33' E 140°01'0 0.0
2018-Apr-15 16:31N 35°33' E 140°01'0 0.0
2018-Apr-15 16:01N 35°33' E 140°01'0 0.0
2018-Apr-15 15:30N 35°33' E 140°01'0 0.0
2018-Apr-15 14:59N 35°33' E 140°01'0 0.0
2018-Apr-15 14:30N 35°33' E 140°01'0 0.0
2018-Apr-15 14:00N 35°33' E 140°01'0 0.0
2018-Apr-15 13:30N 35°33' E 140°01'0 0.0
2018-Apr-15 13:00N 35°33' E 140°01'0 0.1
2018-Apr-15 12:30N 35°33' E 140°01'0 0.0
2018-Apr-15 12:00N 35°33' E 140°01'0 0.0
2018-Apr-15 11:31N 35°33' E 140°01'0 0.0
2018-Apr-15 11:01N 35°33' E 140°01'0 0.0
2018-Apr-15 10:31N 35°33' E 140°01'0 0.1
2018-Apr-15 10:00N 35°33' E 140°01'0 0.0
2018-Apr-15 09:31N 35°33' E 140°01'0 0.1
2018-Apr-15 09:01N 35°33' E 140°01'0 0.1
2018-Apr-15 08:30N 35°33' E 140°01'0 0.0
2018-Apr-15 08:00N 35°33' E 140°01'0 0.0
2018-Apr-15 07:31N 35°33' E 140°01'0 0.0
2018-Apr-15 07:00N 35°33' E 140°01'0 0.0
2018-Apr-15 06:30N 35°33' E 140°01'0 0.0
2018-Apr-15 06:01N 35°33' E 140°01'0 0.0
2018-Apr-15 05:31N 35°33' E 140°01'0 0.0
2018-Apr-15 05:00N 35°33' E 140°01'0 0.0
2018-Apr-15 04:30N 35°33' E 140°01'0 0.0
2018-Apr-15 04:00N 35°33' E 140°01'0 0.0
2018-Apr-15 03:31N 35°33' E 140°01'0 0.0
2018-Apr-15 03:01N 35°33' E 140°01'0 0.0
2018-Apr-15 02:30N 35°33' E 140°01'0 0.0
2018-Apr-15 02:00N 35°33' E 140°01'0 0.0
2018-Apr-15 01:31N 35°33' E 140°01'0 0.0
2018-Apr-15 01:01N 35°33' E 140°01'0 0.0
2018-Apr-15 00:31N 35°33' E 140°01'0 0.0
2018-Apr-15 00:01N 35°33' E 140°01'0 0.0
2018-Apr-14 23:31N 35°33' E 140°01'0 0.0
2018-Apr-14 23:01N 35°33' E 140°01'0 0.0
2018-Apr-14 22:31N 35°33' E 140°01'0 0.0
2018-Apr-14 22:00N 35°33' E 140°01'0 0.0
2018-Apr-14 21:30N 35°33' E 140°01'0 0.0
2018-Apr-14 21:00N 35°33' E 140°01'0 0.0
2018-Apr-14 20:29N 35°33' E 140°01'0 0.0
2018-Apr-14 20:00N 35°33' E 140°01'0 0.0
2018-Apr-14 19:30N 35°33' E 140°01'0 0.1
2018-Apr-14 19:00N 35°33' E 140°01'0 0.0
2018-Apr-14 18:30N 35°33' E 140°01'0 0.0
2018-Apr-14 18:01N 35°33' E 140°01'0 0.1
2018-Apr-14 17:30N 35°33' E 140°01'0 0.0
2018-Apr-14 17:00N 35°33' E 140°01'0 0.0
2018-Apr-14 16:31N 35°33' E 140°01'0 0.0
2018-Apr-14 16:01N 35°33' E 140°01'0 0.1
2018-Apr-14 15:31N 35°33' E 140°01'0 0.0
2018-Apr-14 15:00N 35°33' E 140°01'0 0.0
2018-Apr-14 14:31N 35°33' E 140°01'0 0.0
2018-Apr-14 14:01N 35°33' E 140°01'0 0.0
2018-Apr-14 13:31N 35°33' E 140°01'0 0.1
2018-Apr-14 13:00N 35°33' E 140°01'0 0.1
2018-Apr-14 12:30N 35°33' E 140°01'0 0.0
2018-Apr-14 11:59N 35°33' E 140°01'0 0.0
2018-Apr-14 11:31N 35°33' E 140°01'0 0.0
2018-Apr-14 11:00N 35°33' E 140°01'0 0.0
2018-Apr-14 10:31N 35°33' E 140°01'0 0.0
2018-Apr-14 10:01N 35°33' E 140°01'0 0.1
2018-Apr-14 09:30N 35°33' E 140°01'5 9.6
2018-Apr-14 09:00N 35°35' E 140°06'1 1.0
2018-Apr-14 08:30N 35°35' E 140°07'0 0.0
2018-Apr-14 08:01N 35°35' E 140°07'0 0.0
2018-Apr-14 07:30N 35°35' E 140°07'0 0.0
2018-Apr-14 07:00N 35°35' E 140°07'0 0.0
2018-Apr-14 06:30N 35°35' E 140°07'0 0.0
2018-Apr-14 06:00N 35°35' E 140°07'0 0.0
2018-Apr-14 05:30N 35°35' E 140°07'0 0.0
2018-Apr-14 05:01N 35°35' E 140°07'1 1.4
2018-Apr-14 04:30N 35°35' E 140°06'4 7.0
2018-Apr-14 04:00N 35°34' E 140°02'2 3.2
2018-Apr-14 03:31N 35°33' E 140°04'2 3.1
2018-Apr-14 03:00N 35°32' E 140°06'0 0.0
2018-Apr-14 02:10N 35°32' E 140°06'0 0.0
2018-Apr-14 01:21N 35°32' E 140°06'0 0.0
2018-Apr-14 00:48N 35°32' E 140°06'0 0.0
2018-Apr-14 00:29N 35°32' E 140°06'0 0.0
2018-Apr-13 23:59N 35°32' E 140°06'0 0.0
2018-Apr-13 23:08N 35°32' E 140°06'0 0.0
2018-Apr-13 22:58N 35°32' E 140°06'0 0.1
2018-Apr-13 22:30N 35°32' E 140°05'3 5.5
2018-Apr-13 22:00N 35°34' E 140°03'1 3.0
2018-Apr-13 21:30N 35°33' E 140°01'0 0.0
2018-Apr-13 21:01N 35°33' E 140°01'0 0.0
2018-Apr-13 20:30N 35°33' E 140°01'0 0.0
2018-Apr-13 20:00N 35°33' E 140°01'0 0.0
2018-Apr-13 19:29N 35°33' E 140°01'0 0.0
2018-Apr-13 19:00N 35°33' E 140°01'0 0.0
2018-Apr-13 18:31N 35°33' E 140°01'0 0.0
2018-Apr-13 18:00N 35°33' E 140°01'0 0.0
2018-Apr-13 17:30N 35°33' E 140°01'0 0.0
2018-Apr-13 17:00N 35°33' E 140°01'0 0.0
2018-Apr-13 16:31N 35°33' E 140°01'0 0.0
2018-Apr-13 16:00N 35°33' E 140°01'2 3.2
2018-Apr-13 15:30N 35°32' E 139°59'612.1
2018-Apr-13 15:00N 35°29' E 139°53'  
Track history (hours):
 
Tides and Currents Weather Stations Pressure Air Temp Water Temp Dewpoint Dewpoint Depression Visibility Wind Speed Wind Dir Waves Ship Positions

Shinshinmaru

Last reported at 2018-Apr-23 14:42 UTC. Time now 2018-Apr-24 14:34 UTC.
Position N 34°18' E 133°00'.

Length 74 m; draft 4.8 m.

Type: Tanker. MMSI: 431003616.

Date/timePositionNaut miles runAvg speedWind from/ knotsBaromVisibWave heightAir tempDewpointWater temp
2018-Apr-23 14:42N 34°18' E 133°00'2011.1
2018-Apr-23 12:55N 34°04' E 132°44'511.7
2018-Apr-23 12:30N 34°01' E 132°38'711.0
2018-Apr-23 11:52N 33°57' E 132°32'411.1
2018-Apr-23 11:28N 33°54' E 132°28'511.2
2018-Apr-23 10:59N 33°51' E 132°23'811.6
2018-Apr-23 10:16N 33°49' E 132°13'711.3
2018-Apr-23 09:39N 33°46' E 132°06'212.0
2018-Apr-23 09:30N 33°45' E 132°04'811.6
2018-Apr-23 08:51N 33°46' E 131°54'411.7
2018-Apr-23 08:29N 33°47' E 131°49'612.1
2018-Apr-23 08:00N 33°48' E 131°43'612.0
2018-Apr-23 07:30N 33°49' E 131°36'611.9
2018-Apr-23 07:00N 33°50' E 131°29'612.0
2018-Apr-23 06:30N 33°51' E 131°22'611.8
2018-Apr-23 06:00N 33°52' E 131°15'611.6
2018-Apr-23 05:29N 33°55' E 131°08'611.8
2018-Apr-23 05:00N 33°58' E 131°02'5 9.9
2018-Apr-23 04:30N 33°56' E 130°56'3 6.9
2018-Apr-23 04:00N 33°56' E 130°52'2 4.1
2018-Apr-23 03:30N 33°58' E 130°52'0 0.0
2018-Apr-23 03:00N 33°58' E 130°52'0 0.0
2018-Apr-23 02:30N 33°58' E 130°52'0 0.0
2018-Apr-23 02:00N 33°58' E 130°52'0 0.0
2018-Apr-23 01:30N 33°58' E 130°52'0 0.0
2018-Apr-23 01:00N 33°58' E 130°52'0 0.0
2018-Apr-23 00:30N 33°58' E 130°52'0 0.0
2018-Apr-23 00:00N 33°58' E 130°52'1 3.0
2018-Apr-22 23:31N 33°58' E 130°54'0 0.2
2018-Apr-22 23:00N 33°58' E 130°54'0 0.0
2018-Apr-22 22:30N 33°58' E 130°54'0 0.0
2018-Apr-22 22:00N 33°58' E 130°54'0 0.0
2018-Apr-22 21:30N 33°58' E 130°54'0 0.0
2018-Apr-22 21:00N 33°58' E 130°54'0 0.0
2018-Apr-22 20:30N 33°58' E 130°54'0 0.1
2018-Apr-22 20:00N 33°58' E 130°54'0 0.0
2018-Apr-22 19:28N 33°58' E 130°54'0 0.0
2018-Apr-22 19:01N 33°58' E 130°54'0 0.0
2018-Apr-22 18:31N 33°58' E 130°54'0 0.0
2018-Apr-22 18:00N 33°58' E 130°54'0 0.0
2018-Apr-22 17:30N 33°58' E 130°54'0 0.1
2018-Apr-22 17:00N 33°58' E 130°54'0 0.0
2018-Apr-22 16:28N 33°58' E 130°54'0 0.0
2018-Apr-22 16:00N 33°58' E 130°54'0 0.0
2018-Apr-22 15:31N 33°58' E 130°54'0 0.0
2018-Apr-22 15:00N 33°58' E 130°54'0 0.0
2018-Apr-22 14:30N 33°58' E 130°54'0 0.0
2018-Apr-22 13:59N 33°58' E 130°54'0 0.1
2018-Apr-22 13:30N 33°58' E 130°54'0 0.0
2018-Apr-22 13:00N 33°58' E 130°54'0 0.1
2018-Apr-22 12:30N 33°58' E 130°54'0 0.0
2018-Apr-22 12:00N 33°58' E 130°54'0 0.0
2018-Apr-22 11:30N 33°58' E 130°54'0 0.0
2018-Apr-22 11:00N 33°58' E 130°54'0 0.0
2018-Apr-22 10:30N 33°58' E 130°54'0 0.1
2018-Apr-22 10:01N 33°58' E 130°54'0 0.1
2018-Apr-22 09:30N 33°58' E 130°54'0 0.0
2018-Apr-22 09:00N 33°58' E 130°54'0 0.0
2018-Apr-22 08:30N 33°58' E 130°54'0 0.0
2018-Apr-22 08:00N 33°58' E 130°54'0 0.0
2018-Apr-22 07:30N 33°58' E 130°54'0 0.0
2018-Apr-22 07:00N 33°58' E 130°54'0 0.0
2018-Apr-22 06:30N 33°58' E 130°54'0 0.0
2018-Apr-22 06:00N 33°58' E 130°54'0 0.0
2018-Apr-22 05:30N 33°58' E 130°54'0 0.1
2018-Apr-22 05:00N 33°58' E 130°54'0 0.0
2018-Apr-22 04:31N 33°58' E 130°54'0 0.0
2018-Apr-22 03:59N 33°58' E 130°54'0 0.0
2018-Apr-22 03:30N 33°58' E 130°54'0 0.0
2018-Apr-22 03:00N 33°58' E 130°54'2 3.7
2018-Apr-22 02:30N 33°56' E 130°53'1 1.4
2018-Apr-22 02:00N 33°56' E 130°54'0 0.0
2018-Apr-22 01:30N 33°56' E 130°54'0 0.0
2018-Apr-22 01:00N 33°56' E 130°54'0 0.0
2018-Apr-22 00:30N 33°56' E 130°54'0 0.0
2018-Apr-22 00:00N 33°56' E 130°54'0 0.0
2018-Apr-21 23:30N 33°56' E 130°54'0 0.0
2018-Apr-21 23:00N 33°56' E 130°54'0 0.0
2018-Apr-21 22:30N 33°56' E 130°54'0 0.1
2018-Apr-21 22:00N 33°56' E 130°54'1 2.9
2018-Apr-21 21:30N 33°55' E 130°54'510.3
2018-Apr-21 20:59N 33°58' E 130°59'510.1
2018-Apr-21 20:31N 33°57' E 131°04'611.8
2018-Apr-21 20:00N 33°54' E 131°10'611.3
2018-Apr-21 19:30N 33°53' E 131°17'2 4.9
2018-Apr-21 19:00N 33°53' E 131°20'3 6.3
2018-Apr-21 18:30N 33°51' E 131°23'611.6
2018-Apr-21 18:00N 33°50' E 131°30'611.7
2018-Apr-21 17:30N 33°49' E 131°37'611.8
2018-Apr-21 17:00N 33°48' E 131°44'612.0
2018-Apr-21 16:30N 33°47' E 131°51'811.7
2018-Apr-21 15:47N 33°46' E 132°01'311.6
2018-Apr-21 15:30N 33°46' E 132°05'611.4
2018-Apr-21 15:00N 33°49' E 132°11'1510.6
2018-Apr-21 13:38N 33°54' E 132°27'110.6
2018-Apr-21 13:30N 33°55' E 132°28'610.4
2018-Apr-21 12:55N 33°59' E 132°34'511.5
2018-Apr-21 12:30N 34°01' E 132°38'2412.2
2018-Apr-21 10:31N 34°18' E 132°60'49 2.4
2018-Apr-20 14:12N 34°26' E 133°58'413.2
2018-Apr-20 13:54N 34°27' E 134°03'613.7
2018-Apr-20 13:28N 34°26' E 134°10'713.7
2018-Apr-20 12:59N 34°23' E 134°18'612.5
2018-Apr-20 12:29N 34°21' E 134°25'612.3
2018-Apr-20 12:00N 34°18' E 134°31'712.5
2018-Apr-20 11:26N 34°15' E 134°39'612.9
2018-Apr-20 10:57N 34°10' E 134°43'512.2
2018-Apr-20 10:30N 34°06' E 134°48'612.5
2018-Apr-20 10:00N 34°02' E 134°53'612.0
2018-Apr-20 09:30N 33°57' E 134°57'612.3
2018-Apr-20 09:00N 33°52' E 135°02'19210.7
2018-Apr-19 15:02N 34°35' E 138°49'011.3
2018-Apr-19 15:00N 34°35' E 138°49'711.8
2018-Apr-19 14:27N 34°36' E 138°57'611.9
2018-Apr-19 13:59N 34°39' E 139°02'811.5
2018-Apr-19 13:17N 34°44' E 139°10'1311.5
2018-Apr-19 12:09N 34°53' E 139°22'310.4
2018-Apr-19 11:53N 34°55' E 139°25'4 9.8
2018-Apr-19 11:29N 34°57' E 139°28'511.1
2018-Apr-19 11:00N 35°01' E 139°33'611.4
2018-Apr-19 10:30N 35°04' E 139°38'612.0
2018-Apr-19 10:01N 35°09' E 139°43'611.5
2018-Apr-19 09:31N 35°14' E 139°46'510.8
2018-Apr-19 09:00N 35°19' E 139°43'611.2
2018-Apr-19 08:30N 35°24' E 139°42'5 9.9
2018-Apr-19 08:00N 35°29' E 139°43'0 0.3
2018-Apr-19 07:31N 35°29' E 139°43'0 0.0
2018-Apr-19 07:00N 35°29' E 139°43'0 0.0
2018-Apr-19 06:30N 35°29' E 139°43'0 0.0
2018-Apr-19 06:00N 35°29' E 139°43'0 0.0
2018-Apr-19 05:30N 35°29' E 139°43'0 0.0
2018-Apr-19 05:00N 35°29' E 139°43'4 8.3
2018-Apr-19 04:30N 35°30' E 139°48'2 4.5
2018-Apr-19 04:01N 35°31' E 139°51'0 0.1
2018-Apr-19 03:30N 35°31' E 139°50'0 0.1
2018-Apr-19 03:00N 35°31' E 139°50'1 1.5
2018-Apr-19 02:30N 35°31' E 139°51'611.9
2018-Apr-19 02:00N 35°33' E 139°58'611.2
2018-Apr-19 01:30N 35°36' E 140°04'2 3.7
2018-Apr-19 00:59N 35°35' E 140°07'0 0.0
2018-Apr-19 00:30N 35°35' E 140°07'0 0.0
2018-Apr-19 00:00N 35°35' E 140°07'0 0.0
2018-Apr-18 23:30N 35°35' E 140°07'0 0.0
2018-Apr-18 23:00N 35°35' E 140°07'3 6.3
2018-Apr-18 22:30N 35°35' E 140°03'3 6.5
2018-Apr-18 22:00N 35°33' E 139°60'3 6.4
2018-Apr-18 21:30N 35°31' E 139°56'4 7.0
2018-Apr-18 21:00N 35°29' E 139°53'611.4
2018-Apr-18 20:30N 35°25' E 139°48'612.0
2018-Apr-18 20:00N 35°20' E 139°44'611.8
2018-Apr-18 19:30N 35°14' E 139°47'612.2
2018-Apr-18 19:00N 35°08' E 139°46'612.6
2018-Apr-18 18:30N 35°02' E 139°44'612.3
2018-Apr-18 17:59N 34°56' E 139°45'1310.3
2018-Apr-18 16:46N 34°56' E 140°01'512.4
2018-Apr-18 16:24N 34°59' E 140°05'511.8
2018-Apr-18 15:59N 35°01' E 140°10'  
2018-Apr-16 08:56N 35°02' E 140°11'512.9
2018-Apr-16 08:30N 34°59' E 140°06'1512.1
2018-Apr-16 07:18N 34°53' E 139°49'311.7
2018-Apr-16 07:00N 34°55' E 139°46'5 9.9
2018-Apr-16 06:30N 34°59' E 139°43'611.4
2018-Apr-16 06:01N 35°05' E 139°45'612.2
2018-Apr-16 05:30N 35°11' E 139°46'611.4
2018-Apr-16 05:00N 35°16' E 139°46'611.3
2018-Apr-16 04:30N 35°21' E 139°42'510.8
2018-Apr-16 04:00N 35°26' E 139°45'612.4
2018-Apr-16 03:30N 35°30' E 139°52'612.4
2018-Apr-16 03:00N 35°32' E 139°58'2 4.5
2018-Apr-16 02:31N 35°33' E 140°01'0 0.0
2018-Apr-16 02:00N 35°33' E 140°01'0 0.0
2018-Apr-16 01:30N 35°33' E 140°01'0 0.0
2018-Apr-16 01:00N 35°33' E 140°01'0 0.0
2018-Apr-16 00:29N 35°33' E 140°01'0 0.0
2018-Apr-16 00:01N 35°33' E 140°01'0 0.0
2018-Apr-15 23:30N 35°33' E 140°01'0 0.0
2018-Apr-15 23:01N 35°33' E 140°01'0 0.0
2018-Apr-15 22:31N 35°33' E 140°01'0 0.0
2018-Apr-15 22:00N 35°33' E 140°01'0 0.0
2018-Apr-15 21:30N 35°33' E 140°01'0 0.1
2018-Apr-15 21:01N 35°33' E 140°01'0 0.0
2018-Apr-15 20:30N 35°33' E 140°01'0 0.0
2018-Apr-15 20:01N 35°33' E 140°01'0 0.0
2018-Apr-15 19:30N 35°33' E 140°01'0 0.0
2018-Apr-15 19:01N 35°33' E 140°01'0 0.0
2018-Apr-15 18:31N 35°33' E 140°01'0 0.0
2018-Apr-15 18:01N 35°33' E 140°01'0 0.0
2018-Apr-15 17:31N 35°33' E 140°01'0 0.0
2018-Apr-15 17:01N 35°33' E 140°01'0 0.0
2018-Apr-15 16:31N 35°33' E 140°01'0 0.0
2018-Apr-15 16:01N 35°33' E 140°01'0 0.0
2018-Apr-15 15:30N 35°33' E 140°01'0 0.0
2018-Apr-15 14:59N 35°33' E 140°01'0 0.0
2018-Apr-15 14:30N 35°33' E 140°01'0 0.0
2018-Apr-15 14:00N 35°33' E 140°01'0 0.0
2018-Apr-15 13:30N 35°33' E 140°01'0 0.0
2018-Apr-15 13:00N 35°33' E 140°01'0 0.1
2018-Apr-15 12:30N 35°33' E 140°01'0 0.0
2018-Apr-15 12:00N 35°33' E 140°01'0 0.0
2018-Apr-15 11:31N 35°33' E 140°01'0 0.0
2018-Apr-15 11:01N 35°33' E 140°01'0 0.0
2018-Apr-15 10:31N 35°33' E 140°01'0 0.1
2018-Apr-15 10:00N 35°33' E 140°01'0 0.0
2018-Apr-15 09:31N 35°33' E 140°01'0 0.1
2018-Apr-15 09:01N 35°33' E 140°01'0 0.1
2018-Apr-15 08:30N 35°33' E 140°01'0 0.0
2018-Apr-15 08:00N 35°33' E 140°01'0 0.0
2018-Apr-15 07:31N 35°33' E 140°01'0 0.0
2018-Apr-15 07:00N 35°33' E 140°01'0 0.0
2018-Apr-15 06:30N 35°33' E 140°01'0 0.0
2018-Apr-15 06:01N 35°33' E 140°01'0 0.0
2018-Apr-15 05:31N 35°33' E 140°01'0 0.0
2018-Apr-15 05:00N 35°33' E 140°01'0 0.0
2018-Apr-15 04:30N 35°33' E 140°01'0 0.0
2018-Apr-15 04:00N 35°33' E 140°01'0 0.0
2018-Apr-15 03:31N 35°33' E 140°01'0 0.0
2018-Apr-15 03:01N 35°33' E 140°01'0 0.0
2018-Apr-15 02:30N 35°33' E 140°01'0 0.0
2018-Apr-15 02:00N 35°33' E 140°01'0 0.0
2018-Apr-15 01:31N 35°33' E 140°01'0 0.0
2018-Apr-15 01:01N 35°33' E 140°01'0 0.0
2018-Apr-15 00:31N 35°33' E 140°01'0 0.0
2018-Apr-15 00:01N 35°33' E 140°01'0 0.0
2018-Apr-14 23:31N 35°33' E 140°01'0 0.0
2018-Apr-14 23:01N 35°33' E 140°01'0 0.0
2018-Apr-14 22:31N 35°33' E 140°01'0 0.0
2018-Apr-14 22:00N 35°33' E 140°01'0 0.0
2018-Apr-14 21:30N 35°33' E 140°01'0 0.0
2018-Apr-14 21:00N 35°33' E 140°01'0 0.0
2018-Apr-14 20:29N 35°33' E 140°01'0 0.0
2018-Apr-14 20:00N 35°33' E 140°01'0 0.0
2018-Apr-14 19:30N 35°33' E 140°01'0 0.1
2018-Apr-14 19:00N 35°33' E 140°01'0 0.0
2018-Apr-14 18:30N 35°33' E 140°01'0 0.0
2018-Apr-14 18:01N 35°33' E 140°01'0 0.1
2018-Apr-14 17:30N 35°33' E 140°01'0 0.0
2018-Apr-14 17:00N 35°33' E 140°01'0 0.0
2018-Apr-14 16:31N 35°33' E 140°01'0 0.0
2018-Apr-14 16:01N 35°33' E 140°01'0 0.1
2018-Apr-14 15:31N 35°33' E 140°01'0 0.0
2018-Apr-14 15:00N 35°33' E 140°01'0 0.0
2018-Apr-14 14:31N 35°33' E 140°01'0 0.0
2018-Apr-14 14:01N 35°33' E 140°01'0 0.0
2018-Apr-14 13:31N 35°33' E 140°01'0 0.1
2018-Apr-14 13:00N 35°33' E 140°01'0 0.1
2018-Apr-14 12:30N 35°33' E 140°01'0 0.0
2018-Apr-14 11:59N 35°33' E 140°01'0 0.0
2018-Apr-14 11:31N 35°33' E 140°01'0 0.0
2018-Apr-14 11:00N 35°33' E 140°01'0 0.0
2018-Apr-14 10:31N 35°33' E 140°01'0 0.0
2018-Apr-14 10:01N 35°33' E 140°01'0 0.1
2018-Apr-14 09:30N 35°33' E 140°01'5 9.6
2018-Apr-14 09:00N 35°35' E 140°06'1 1.0
2018-Apr-14 08:30N 35°35' E 140°07'0 0.0
2018-Apr-14 08:01N 35°35' E 140°07'0 0.0
2018-Apr-14 07:30N 35°35' E 140°07'0 0.0
2018-Apr-14 07:00N 35°35' E 140°07'0 0.0
2018-Apr-14 06:30N 35°35' E 140°07'0 0.0
2018-Apr-14 06:00N 35°35' E 140°07'0 0.0
2018-Apr-14 05:30N 35°35' E 140°07'0 0.0
2018-Apr-14 05:01N 35°35' E 140°07'1 1.4
2018-Apr-14 04:30N 35°35' E 140°06'4 7.0
2018-Apr-14 04:00N 35°34' E 140°02'2 3.2
2018-Apr-14 03:31N 35°33' E 140°04'2 3.1
2018-Apr-14 03:00N 35°32' E 140°06'0 0.0
2018-Apr-14 02:10N 35°32' E 140°06'0 0.0
2018-Apr-14 01:21N 35°32' E 140°06'0 0.0
2018-Apr-14 00:48N 35°32' E 140°06'0 0.0
2018-Apr-14 00:29N 35°32' E 140°06'0 0.0
2018-Apr-13 23:59N 35°32' E 140°06'0 0.0
2018-Apr-13 23:08N 35°32' E 140°06'0 0.0
2018-Apr-13 22:58N 35°32' E 140°06'0 0.1
2018-Apr-13 22:30N 35°32' E 140°05'3 5.5
2018-Apr-13 22:00N 35°34' E 140°03'1 3.0
2018-Apr-13 21:30N 35°33' E 140°01'0 0.0
2018-Apr-13 21:01N 35°33' E 140°01'0 0.0
2018-Apr-13 20:30N 35°33' E 140°01'0 0.0
2018-Apr-13 20:00N 35°33' E 140°01'0 0.0
2018-Apr-13 19:29N 35°33' E 140°01'0 0.0
2018-Apr-13 19:00N 35°33' E 140°01'0 0.0
2018-Apr-13 18:31N 35°33' E 140°01'0 0.0
2018-Apr-13 18:00N 35°33' E 140°01'0 0.0
2018-Apr-13 17:30N 35°33' E 140°01'0 0.0
2018-Apr-13 17:00N 35°33' E 140°01'0 0.0
2018-Apr-13 16:31N 35°33' E 140°01'0 0.0
2018-Apr-13 16:00N 35°33' E 140°01'2 3.2
2018-Apr-13 15:30N 35°32' E 139°59'612.1
2018-Apr-13 15:00N 35°29' E 139°53'  

Dump ship's entire track history